Time;durP1;ratioP1;P1;durP2;ratioP2;P2;SDS_P1;SDS_P2;PMS_P1;PMS_P2;Temp;Humidity;BMP_temperature;BMP_pressure;BME280_temperature;BME280_humidity;BME280_pressure;Samples;Min_cycle;Max_cycle;Signal;HPM_P1;HPM_P2
2021/08/14 00:01:05;;;;;;;;;;;;;;;15.86;90.77;98617.66;1740269;81;20177;-75
2021/08/14 00:03:31;;;;;;;;;;;;;;;15.86;90.26;98622.31;1742499;82;20175;-79
2021/08/14 00:05:57;;;;;;;;;;;;;;;15.85;89.93;98626.16;1739147;82;20139;-75
2021/08/14 00:08:23;;;;;;;;;;;;;;;15.82;91.14;98615.84;1738911;82;20186;-79
2021/08/14 00:10:48;;;;;;;;;;;;;;;15.82;88.72;98617.20;1739042;82;21154;-79
2021/08/14 00:13:14;;;;;;;;;;;;;;;15.77;87.34;98622.99;1738868;81;20174;-75
2021/08/14 00:15:40;;;;;;;;;;;;;;;15.73;88.14;98628.81;1738829;81;20312;-75
2021/08/14 00:18:06;;;;;;;;;;;;;;;15.71;90.29;98621.45;1738899;81;20817;-75
2021/08/14 00:20:31;;;;;;;;;;;;;;;15.75;89.60;98621.13;1739075;82;20237;-79
2021/08/14 00:23:00;;;;;;;;;;;;;;;15.83;91.50;98618.27;1738941;82;21759;-79
2021/08/14 00:25:25;;;;;;;;;;;;;;;15.86;91.95;98619.02;1738653;81;20171;-79
2021/08/14 00:27:51;;;;;;;;;;;;;;;15.93;91.20;98615.91;1739065;81;20457;-78
2021/08/14 00:30:17;;;;;;;;;;;;;;;15.96;91.52;98611.20;1738898;82;20173;-75
2021/08/14 00:32:43;;;;;;;;;;;;;;;16.05;91.49;98611.56;1739050;82;20186;-79
2021/08/14 00:35:10;;;;;;;;;;;;;;;16.07;92.05;98616.20;1738795;81;21958;-75
2021/08/14 00:37:35;;;;;;;;;;;;;;;16.04;91.95;98614.05;1739013;81;20148;-75
2021/08/14 00:40:01;;;;;;;;;;;;;;;16.04;90.79;98607.77;1738939;81;20173;-79
2021/08/14 00:42:27;;;;;;;;;;;;;;;16.02;90.66;98597.14;1738786;81;20161;-75
2021/08/14 00:44:53;;;;;;;;;;;;;;;16.04;90.38;98600.38;1738838;82;20154;-76
2021/08/14 00:47:25;;;;;;;;;;;;;;;16.01;90.47;98596.08;1739033;81;21070;-76
2021/08/14 00:49:52;;;;;;;;;;;;;;;15.96;90.17;98593.43;1738369;82;20431;-75
2021/08/14 00:52:18;;;;;;;;;;;;;;;15.89;90.44;98591.08;1739108;82;20144;-76
2021/08/14 00:54:44;;;;;;;;;;;;;;;15.86;90.29;98588.16;1738825;82;20148;-79
2021/08/14 00:57:09;;;;;;;;;;;;;;;15.82;89.82;98582.48;1739098;81;20245;-79
2021/08/14 00:59:36;;;;;;;;;;;;;;;15.80;90.26;98577.86;1738700;81;21061;-75
2021/08/14 01:02:03;;;;;;;;;;;;;;;15.76;91.22;98580.39;1736119;81;20141;-79
2021/08/14 01:04:29;;;;;;;;;;;;;;;15.74;90.62;98573.61;1730629;83;20419;-79
2021/08/14 01:06:55;;;;;;;;;;;;;;;15.71;90.21;98564.08;1730902;82;20493;-75
2021/08/14 01:09:21;;;;;;;;;;;;;;;15.60;90.06;98568.06;1730582;83;20215;-76
2021/08/14 01:11:49;;;;;;;;;;;;;;;15.56;89.94;98568.98;1730943;82;21085;-75
2021/08/14 01:14:14;;;;;;;;;;;;;;;15.45;91.29;98571.05;1730663;83;20112;-75
2021/08/14 01:16:41;;;;;;;;;;;;;;;15.42;90.82;98571.09;1731049;82;20197;-78
2021/08/14 01:19:07;;;;;;;;;;;;;;;15.40;91.83;98556.94;1730752;83;20423;-79
2021/08/14 01:21:33;;;;;;;;;;;;;;;15.39;92.19;98568.97;1730996;82;20436;-75
2021/08/14 01:24:01;;;;;;;;;;;;;;;15.41;89.86;98565.94;1730809;83;21089;-75
2021/08/14 01:26:26;;;;;;;;;;;;;;;15.36;92.11;98579.10;1710968;82;20112;-75
2021/08/14 01:28:53;;;;;;;;;;;;;;;15.40;92.40;98570.59;1730675;83;20162;-79
2021/08/14 01:31:19;;;;;;;;;;;;;;;15.45;91.67;98565.03;1730926;82;20133;-75
2021/08/14 01:33:45;;;;;;;;;;;;;;;15.49;90.25;98567.99;1730850;82;20178;-75
2021/08/14 01:36:12;;;;;;;;;;;;;;;15.51;92.02;98569.86;1730946;83;21178;-79
2021/08/14 01:38:50;;;;;;;;;;;;;;;15.58;91.65;98573.58;1710258;83;20420;-75
2021/08/14 01:41:16;;;;;;;;;;;;;;;15.63;90.71;98563.95;1710412;83;20140;-79
2021/08/14 01:43:56;;;;;;;;;;;;;;;15.70;91.15;98574.75;1730794;83;20139;-75
2021/08/14 01:46:22;;;;;;;;;;;;;;;15.69;89.38;98572.32;1731051;83;20152;-75
2021/08/14 01:48:48;;;;;;;;;;;;;;;15.65;89.43;98559.02;1730910;83;21097;-79
2021/08/14 01:51:14;;;;;;;;;;;;;;;15.66;89.17;98564.73;1731002;83;20186;-78
2021/08/14 01:53:51;;;;;;;;;;;;;;;15.70;90.30;98564.38;1730964;83;20186;-79
2021/08/14 01:56:17;;;;;;;;;;;;;;;15.71;91.79;98556.44;1731165;83;20148;-75
2021/08/14 01:58:42;;;;;;;;;;;;;;;15.77;91.13;98562.88;1730890;83;20194;-75
2021/08/14 02:01:08;;;;;;;;;;;;;;;15.88;91.11;98561.33;1731193;82;21020;-79
2021/08/14 02:03:35;;;;;;;;;;;;;;;15.93;91.84;98553.05;1730639;82;20140;-78
2021/08/14 02:06:02;;;;;;;;;;;;;;;15.96;91.17;98544.23;1731121;82;20168;-79
2021/08/14 02:08:28;;;;;;;;;;;;;;;15.94;90.52;98543.73;1730954;82;20148;-75
2021/08/14 02:10:54;;;;;;;;;;;;;;;15.93;90.57;98542.12;1730855;83;20434;-75
2021/08/14 02:13:20;;;;;;;;;;;;;;;15.96;89.90;98542.88;1730885;83;20590;-79
2021/08/14 02:15:46;;;;;;;;;;;;;;;15.95;89.68;98541.25;1730745;82;20237;-79
2021/08/14 02:18:11;;;;;;;;;;;;;;;15.92;90.29;98538.58;1730940;82;20265;-79
2021/08/14 02:20:37;;;;;;;;;;;;;;;15.91;90.04;98535.59;1730798;83;20768;-79
2021/08/14 02:23:03;;;;;;;;;;;;;;;15.93;90.25;98533.92;1730996;82;20206;-75
2021/08/14 02:25:29;;;;;;;;;;;;;;;15.94;90.25;98536.34;1730820;83;21070;-75
2021/08/14 02:27:55;;;;;;;;;;;;;;;15.91;90.93;98527.95;1731048;83;20166;-76
2021/08/14 02:30:21;;;;;;;;;;;;;;;15.93;90.47;98532.55;1730828;83;20273;-75
2021/08/14 02:32:47;;;;;;;;;;;;;;;15.97;89.64;98524.80;1731053;82;20151;-79
2021/08/14 02:35:14;;;;;;;;;;;;;;;15.97;89.11;98522.63;1730962;82;20128;-79
2021/08/14 02:37:39;;;;;;;;;;;;;;;15.92;90.40;98522.18;1731082;83;21164;-75
2021/08/14 02:40:07;;;;;;;;;;;;;;;15.90;89.50;98517.58;1730892;82;20241;-78
2021/08/14 02:42:33;;;;;;;;;;;;;;;15.88;88.31;98520.34;1710421;83;20166;-75
2021/08/14 02:44:58;;;;;;;;;;;;;;;15.83;91.18;98517.16;1730880;82;20182;-78
2021/08/14 02:47:24;;;;;;;;;;;;;;;15.88;94.00;98513.51;1731056;83;20151;-75
2021/08/14 02:49:50;;;;;;;;;;;;;;;15.93;92.59;98515.59;1730805;82;21071;-78
2021/08/14 02:52:16;;;;;;;;;;;;;;;15.96;93.69;98521.01;1731042;82;20277;-79
2021/08/14 02:54:41;;;;;;;;;;;;;;;15.95;93.04;98514.73;1730989;83;20198;-75
2021/08/14 02:57:07;;;;;;;;;;;;;;;15.96;94.51;98514.17;1731010;82;20194;-79
2021/08/14 02:59:33;;;;;;;;;;;;;;;15.98;94.48;98507.31;1730825;83;20178;-75
2021/08/14 03:01:59;;;;;;;;;;;;;;;16.06;93.96;98513.45;1732824;82;20744;-79
2021/08/14 03:04:24;;;;;;;;;;;;;;;16.11;95.22;98516.62;1740604;82;20197;-78
2021/08/14 03:06:56;;;;;;;;;;;;;;;16.13;94.50;98510.28;1739192;82;20201;-76
2021/08/14 03:09:22;;;;;;;;;;;;;;;16.14;94.57;98505.06;1738882;81;20135;-75
2021/08/14 03:11:48;;;;;;;;;;;;;;;16.17;94.28;98507.20;1739203;82;20179;-79
2021/08/14 03:14:14;;;;;;;;;;;;;;;16.18;94.62;98509.38;1738956;82;21137;-79
2021/08/14 03:16:39;;;;;;;;;;;;;;;16.23;94.00;98532.50;1738787;81;20181;-78
2021/08/14 03:19:05;;;;;;;;;;;;;;;16.18;94.40;98533.98;1738914;81;20190;-75
2021/08/14 03:21:31;;;;;;;;;;;;;;;16.18;94.26;98532.06;1739218;81;20150;-75
2021/08/14 03:23:57;;;;;;;;;;;;;;;16.22;93.36;98553.56;1738864;82;20217;-75
2021/08/14 03:26:23;;;;;;;;;;;;;;;16.29;93.10;98556.71;1739177;82;21181;-74
2021/08/14 03:28:48;;;;;;;;;;;;;;;16.32;91.38;98541.09;1738794;82;20128;-74
2021/08/14 03:31:14;;;;;;;;;;;;;;;16.22;94.76;98530.33;1738912;81;20169;-75
2021/08/14 03:33:40;;;;;;;;;;;;;;;16.26;93.66;98538.19;1738995;81;20232;-78
2021/08/14 03:36:06;;;;;;;;;;;;;;;16.30;92.19;98545.22;1738854;81;20186;-75
2021/08/14 03:38:32;;;;;;;;;;;;;;;16.36;94.85;98554.95;1738949;82;21932;-75
2021/08/14 03:40:57;;;;;;;;;;;;;;;16.43;94.15;98558.65;1738771;82;20240;-78
2021/08/14 03:43:23;;;;;;;;;;;;;;;16.49;94.01;98569.19;1739082;82;20197;-79
2021/08/14 03:45:49;;;;;;;;;;;;;;;16.43;95.88;98569.59;1738823;82;20749;-75
2021/08/14 03:48:14;;;;;;;;;;;;;;;16.51;92.73;98527.84;1738974;82;20225;-75
2021/08/14 03:50:40;;;;;;;;;;;;;;;16.34;94.48;98509.33;1738896;81;22019;-79
2021/08/14 03:53:06;;;;;;;;;;;;;;;16.25;95.52;98519.36;1738895;81;20201;-75
2021/08/14 03:55:32;;;;;;;;;;;;;;;16.30;94.09;98535.64;1738954;81;20225;-75
2021/08/14 03:57:57;;;;;;;;;;;;;;;16.38;93.71;98553.27;1738998;81;20781;-78
2021/08/14 04:00:23;;;;;;;;;;;;;;;16.42;94.44;98548.27;1738971;81;20197;-79
2021/08/14 04:02:49;;;;;;;;;;;;;;;16.47;92.86;98560.45;1742253;82;21896;-78
2021/08/14 04:05:15;;;;;;;;;;;;;;;16.52;92.45;98557.62;1747457;82;20197;-75
2021/08/14 04:07:41;;;;;;;;;;;;;;;16.55;94.69;98535.12;1739131;82;20244;-79
2021/08/14 04:10:07;;;;;;;;;;;;;;;16.59;93.91;98530.67;1738976;81;20185;-75
2021/08/14 04:12:33;;;;;;;;;;;;;;;16.70;94.96;98525.00;1739166;81;20182;-75
2021/08/14 04:14:59;;;;;;;;;;;;;;;16.79;95.27;98534.91;1738946;81;21061;-78
2021/08/14 04:17:25;;;;;;;;;;;;;;;16.82;93.81;98535.65;1738825;82;20155;-78
2021/08/14 04:19:51;;;;;;;;;;;;;;;16.85;92.98;98532.32;1739027;82;20167;-75
2021/08/14 04:22:17;;;;;;;;;;;;;;;16.93;92.25;98522.56;1739193;82;20158;-75
2021/08/14 04:24:42;;;;;;;;;;;;;;;16.98;92.35;98527.09;1739116;81;20158;-79
2021/08/14 04:27:08;;;;;;;;;;;;;;;17.00;92.40;98538.55;1739160;82;21063;-76
2021/08/14 04:29:34;;;;;;;;;;;;;;;17.05;92.22;98540.61;1738851;81;20257;-79
2021/08/14 04:32:00;;;;;;;;;;;;;;;17.13;92.13;98538.51;1739128;82;20213;-76
2021/08/14 04:34:25;;;;;;;;;;;;;;;17.21;91.65;98531.48;1738845;81;20146;-75
2021/08/14 04:36:51;;;;;;;;;;;;;;;17.28;91.78;98535.17;1739183;81;20166;-79
2021/08/14 04:39:17;;;;;;;;;;;;;;;17.34;91.30;98536.08;1738787;81;21101;-76
2021/08/14 04:41:43;;;;;;;;;;;;;;;17.40;91.08;98539.52;1739114;81;20177;-76
2021/08/14 04:44:08;;;;;;;;;;;;;;;17.41;91.95;98533.72;1738907;81;20217;-79
2021/08/14 04:46:34;;;;;;;;;;;;;;;17.46;91.80;98534.16;1738876;81;20138;-79
2021/08/14 04:49:00;;;;;;;;;;;;;;;17.56;91.90;98537.20;1738877;81;20178;-79
2021/08/14 04:51:26;;;;;;;;;;;;;;;17.61;91.77;98539.27;1738912;81;21093;-79
2021/08/14 04:53:51;;;;;;;;;;;;;;;17.73;91.61;98546.38;1738952;81;20241;-79
2021/08/14 04:56:17;;;;;;;;;;;;;;;17.72;91.53;98542.58;1738850;81;20233;-75
2021/08/14 04:58:43;;;;;;;;;;;;;;;17.75;91.41;98541.94;1738942;82;20604;-75
2021/08/14 05:01:08;;;;;;;;;;;;;;;17.81;91.16;98550.28;1738858;81;20178;-79
2021/08/14 05:03:34;;;;;;;;;;;;;;;17.82;90.93;98546.98;1743885;81;21267;-75
2021/08/14 05:06:00;;;;;;;;;;;;;;;17.86;93.29;98547.95;1747644;82;20477;-75
2021/08/14 05:08:26;;;;;;;;;;;;;;;17.92;91.71;98551.63;1749068;82;20213;-75
2021/08/14 05:10:52;;;;;;;;;;;;;;;17.90;91.36;98547.59;1717850;82;20828;-75
2021/08/14 05:13:18;;;;;;;;;;;;;;;17.95;91.23;98546.91;1739041;81;20237;-75
2021/08/14 05:15:43;;;;;;;;;;;;;;;17.97;90.96;98546.02;1738836;82;21080;-75
2021/08/14 05:18:10;;;;;;;;;;;;;;;18.02;91.59;98551.91;1718156;82;21079;-77
2021/08/14 05:20:36;;;;;;;;;;;;;;;18.02;92.22;98548.61;1739054;81;20225;-79
2021/08/14 05:23:01;;;;;;;;;;;;;;;18.03;91.78;98550.25;1739250;81;20162;-79
2021/08/14 05:25:28;;;;;;;;;;;;;;;18.05;90.94;98549.93;1739091;82;20134;-75
2021/08/14 05:27:54;;;;;;;;;;;;;;;18.08;91.27;98553.97;1739201;81;21125;-79
2021/08/14 05:30:20;;;;;;;;;;;;;;;18.17;91.39;98549.33;1739139;82;20255;-79
2021/08/14 05:32:45;;;;;;;;;;;;;;;18.22;90.88;98554.68;1739115;81;20221;-79
2021/08/14 05:35:11;;;;;;;;;;;;;;;18.28;90.18;98548.71;1739201;82;20154;-79
2021/08/14 05:37:37;;;;;;;;;;;;;;;18.35;89.42;98548.83;1739147;81;20182;-76
2021/08/14 05:40:03;;;;;;;;;;;;;;;18.44;89.58;98556.52;1739145;81;21101;-79
2021/08/14 05:42:29;;;;;;;;;;;;;;;18.66;88.78;98556.45;1739186;82;20175;-75
2021/08/14 05:44:55;;;;;;;;;;;;;;;18.66;89.27;98553.72;1738825;82;20175;-75
2021/08/14 05:47:21;;;;;;;;;;;;;;;18.80;91.02;98554.94;1739401;81;20182;-79
2021/08/14 05:49:46;;;;;;;;;;;;;;;19.01;88.97;98555.95;1739110;81;20142;-75
2021/08/14 05:52:12;;;;;;;;;;;;;;;19.22;88.11;98545.11;1739309;81;21037;-75
2021/08/14 05:54:38;;;;;;;;;;;;;;;19.28;88.30;98547.95;1739073;81;20158;-79
2021/08/14 05:57:04;;;;;;;;;;;;;;;19.50;88.02;98546.17;1739231;81;20185;-75
2021/08/14 05:59:30;;;;;;;;;;;;;;;19.56;89.29;98545.68;1738885;81;20183;-79
2021/08/14 06:01:56;;;;;;;;;;;;;;;19.64;88.36;98539.36;1738896;81;20651;-79
2021/08/14 06:04:21;;;;;;;;;;;;;;;19.77;87.19;98544.44;1746317;82;21757;-75
2021/08/14 06:06:47;;;;;;;;;;;;;;;19.89;87.08;98543.75;1740028;82;20205;-79
2021/08/14 06:09:13;;;;;;;;;;;;;;;20.00;85.71;98548.59;1738997;81;20221;-75
2021/08/14 06:11:39;;;;;;;;;;;;;;;20.04;85.55;98551.48;1738997;82;20209;-75
2021/08/14 06:14:05;;;;;;;;;;;;;;;20.15;86.24;98556.05;1738938;82;20193;-79
2021/08/14 06:16:30;;;;;;;;;;;;;;;20.37;86.00;98546.73;1738964;82;21085;-79
2021/08/14 06:18:56;;;;;;;;;;;;;;;20.45;84.56;98549.48;1738782;82;20260;-75
2021/08/14 06:21:22;;;;;;;;;;;;;;;20.55;83.42;98548.29;1738955;81;20185;-79
2021/08/14 06:23:48;;;;;;;;;;;;;;;20.63;82.23;98543.88;1738867;81;20181;-79
2021/08/14 06:26:13;;;;;;;;;;;;;;;20.65;81.71;98542.39;1739052;81;20233;-75
2021/08/14 06:28:39;;;;;;;;;;;;;;;20.74;81.74;98544.52;1738935;81;21880;-75
2021/08/14 06:31:05;;;;;;;;;;;;;;;20.84;81.40;98543.32;1738875;81;20741;-76
2021/08/14 06:33:31;;;;;;;;;;;;;;;21.01;80.16;98545.15;1738963;81;20189;-76
2021/08/14 06:35:56;;;;;;;;;;;;;;;21.03;79.80;98556.09;1738949;81;20142;-75
2021/08/14 06:38:22;;;;;;;;;;;;;;;21.07;78.97;98553.45;1739075;82;20186;-80
2021/08/14 06:40:48;;;;;;;;;;;;;;;21.17;79.65;98561.89;1739062;81;21960;-76
2021/08/14 06:43:14;;;;;;;;;;;;;;;21.33;78.42;98554.66;1739236;82;20209;-76
2021/08/14 06:45:40;;;;;;;;;;;;;;;21.43;78.54;98553.43;1739137;81;20189;-76
2021/08/14 06:48:06;;;;;;;;;;;;;;;21.58;78.72;98559.13;1738809;81;20188;-76
2021/08/14 06:50:31;;;;;;;;;;;;;;;21.83;77.72;98560.02;1739042;82;20167;-80
2021/08/14 06:52:57;;;;;;;;;;;;;;;22.11;78.39;98556.08;1739061;81;21140;-80
2021/08/14 06:55:23;;;;;;;;;;;;;;;22.45;77.96;98557.60;1739048;82;20248;-75
2021/08/14 06:57:49;;;;;;;;;;;;;;;22.65;75.30;98557.85;1739096;82;20244;-80
2021/08/14 07:00:16;;;;;;;;;;;;;;;22.64;76.65;98548.73;1739181;81;20198;-80
2021/08/14 07:02:41;;;;;;;;;;;;;;;22.81;75.38;98552.63;1739034;81;20419;-76
2021/08/14 07:05:08;;;;;;;;;;;;;;;23.00;75.02;98546.55;1739075;81;21173;-76
2021/08/14 07:07:33;;;;;;;;;;;;;;;23.02;73.96;98537.33;1737267;81;20417;-80
2021/08/14 07:10:02;;;;;;;;;;;;;;;23.01;74.63;98541.83;1731018;83;20186;-76
2021/08/14 07:12:28;;;;;;;;;;;;;;;23.10;74.28;98542.48;1730940;82;20132;-76
2021/08/14 07:14:55;;;;;;;;;;;;;;;23.60;72.82;98535.66;1731126;83;20183;-76
2021/08/14 07:17:21;;;;;;;;;;;;;;;23.97;72.02;98534.06;1730700;82;21095;-80
2021/08/14 07:19:47;;;;;;;;;;;;;;;24.43;72.10;98537.44;1730868;83;20136;-80
2021/08/14 07:22:16;;;;;;;;;;;;;;;25.02;70.89;98530.91;1730769;83;20174;-76
2021/08/14 07:24:41;;;;;;;;;;;;;;;25.27;68.37;98525.09;1711858;82;20160;-76
2021/08/14 07:27:07;;;;;;;;;;;;;;;25.50;66.73;98525.97;1738467;82;20154;-80
2021/08/14 07:29:33;;;;;;;;;;;;;;;25.56;64.36;98523.71;1738358;82;21130;-79
2021/08/14 07:31:58;;;;;;;;;;;;;;;26.04;65.20;98525.60;1735380;82;20210;-80
2021/08/14 07:34:24;;;;;;;;;;;;;;;26.85;64.54;98530.91;1730574;82;20234;-76
2021/08/14 07:36:50;;;;;;;;;;;;;;;26.69;63.07;98524.13;1730781;82;20166;-80
2021/08/14 07:39:16;;;;;;;;;;;;;;;27.08;62.80;98521.11;1730872;82;20143;-80
2021/08/14 07:41:42;;;;;;;;;;;;;;;27.64;64.65;98528.56;1730893;83;21169;-76
2021/08/14 07:44:08;;;;;;;;;;;;;;;27.91;61.23;98521.72;1731521;82;20166;-80
2021/08/14 07:46:34;;;;;;;;;;;;;;;27.83;60.28;98521.44;1730844;82;20178;-80
2021/08/14 07:49:00;;;;;;;;;;;;;;;27.63;57.23;98520.01;1730850;82;20182;-76
2021/08/14 07:51:26;;;;;;;;;;;;;;;28.11;57.14;98525.08;1730399;82;20156;-76
2021/08/14 07:53:52;;;;;;;;;;;;;;;28.79;58.44;98527.84;1730985;82;21065;-76
2021/08/14 07:56:17;;;;;;;;;;;;;;;29.02;58.81;98523.43;1730341;83;20221;-80
2021/08/14 07:58:43;;;;;;;;;;;;;;;29.01;55.13;98516.85;1731110;82;20186;-76
2021/08/14 08:01:09;;;;;;;;;;;;;;;29.20;54.71;98508.97;1730851;82;20166;-80
2021/08/14 08:03:35;;;;;;;;;;;;;;;29.70;55.10;98511.97;1734703;82;20189;-80
2021/08/14 08:06:00;;;;;;;;;;;;;;;29.93;52.97;98515.81;1744026;82;21104;-76
2021/08/14 08:08:26;;;;;;;;;;;;;;;29.98;51.71;98511.81;1739623;82;20193;-76
2021/08/14 08:10:52;;;;;;;;;;;;;;;30.30;51.95;98513.27;1738852;82;20241;-81
2021/08/14 08:13:18;;;;;;;;;;;;;;;30.15;49.56;98507.47;1739137;81;20138;-81
2021/08/14 08:15:44;;;;;;;;;;;;;;;31.08;51.41;98504.78;1739116;82;20158;-81
2021/08/14 08:18:15;;;;;;;;;;;;;;;31.28;48.51;98505.16;1739125;81;21090;-81
2021/08/14 08:20:41;;;;;;;;;;;;;;;31.90;48.64;98496.64;1738922;82;20084;-81
2021/08/14 08:23:06;;;;;;;;;;;;;;;31.66;47.15;98494.95;1738921;82;20218;-81
2021/08/14 08:25:32;;;;;;;;;;;;;;;31.96;48.74;98497.78;1738954;82;20772;-77
2021/08/14 08:28:01;;;;;;;;;;;;;;;32.39;50.12;98494.67;1739005;82;20154;-81
2021/08/14 08:30:25;;;;;;;;;;;;;;;32.92;47.49;98489.19;1738906;81;20925;-77
2021/08/14 08:32:51;;;;;;;;;;;;;;;32.79;46.70;98492.48;1738898;81;20710;-77
2021/08/14 08:35:17;;;;;;;;;;;;;;;32.07;46.92;98490.72;1739045;81;20173;-77
2021/08/14 08:37:43;;;;;;;;;;;;;;;31.57;47.30;98493.20;1738748;81;20158;-81
2021/08/14 08:40:09;;;;;;;;;;;;;;;31.11;48.89;98486.41;1739065;81;20170;-76
2021/08/14 08:42:36;;;;;;;;;;;;;;;31.33;49.00;98482.93;1738863;82;21738;-76
2021/08/14 08:45:03;;;;;;;;;;;;;;;31.70;47.19;98478.94;1738972;81;20160;-81
2021/08/14 08:47:29;;;;;;;;;;;;;;;32.10;45.55;98481.48;1738788;81;20135;-81
2021/08/14 08:49:56;;;;;;;;;;;;;;;32.69;44.94;98486.98;1739058;82;20155;-81
2021/08/14 08:52:22;;;;;;;;;;;;;;;33.24;44.64;98474.75;1738784;81;20164;-81
2021/08/14 08:54:48;;;;;;;;;;;;;;;33.32;43.20;98478.45;1739020;82;21129;-76
2021/08/14 08:57:14;;;;;;;;;;;;;;;33.47;42.91;98467.07;1738731;81;20084;-81
2021/08/14 08:59:40;;;;;;;;;;;;;;;33.14;45.00;98472.88;1739024;82;20170;-77
2021/08/14 09:02:26;;;;;;;;;;;;;;;33.28;43.64;98469.91;1738820;81;20158;-81
2021/08/14 09:05:15;;;;;;;;;;;;;;;33.19;43.63;98470.41;1742553;81;20163;-81
2021/08/14 09:07:43;;;;;;;;;;;;;;;33.03;44.96;98463.19;1739465;82;21069;-81
2021/08/14 09:10:11;;;;;;;;;;;;;;;34.38;42.22;98461.87;1739028;81;20128;-77
2021/08/14 09:12:41;;;;;;;;;;;;;;;35.20;40.54;98458.92;1738697;82;20420;-77
2021/08/14 09:15:16;;;;;;;;;;;;;;;36.00;38.58;98462.43;1739053;82;20140;-81
2021/08/14 09:17:38;;;;;;;;;;;;;;;36.12;38.71;98456.08;1738160;82;20431;-77
2021/08/14 09:20:07;;;;;;;;;;;;;;;36.87;36.98;98452.13;1739166;81;20619;-77
2021/08/14 09:22:33;;;;;;;;;;;;;;;36.94;35.77;98451.93;1738676;82;20234;-77
2021/08/14 09:25:14;;;;;;;;;;;;;;;37.50;35.95;98451.50;1739057;82;20230;-77
2021/08/14 09:27:57;;;;;;;;;;;;;;;37.95;36.18;98448.33;1738305;82;20749;-81
2021/08/14 09:30:42;;;;;;;;;;;;;;;38.39;34.96;98442.22;1739167;82;20136;-81
2021/08/14 09:33:09;;;;;;;;;;;;;;;38.59;35.17;98444.13;1738931;82;21023;-77
2021/08/14 09:35:35;;;;;;;;;;;;;;;39.25;31.07;98435.70;1738922;82;20446;-81
2021/08/14 09:38:09;;;;;;;;;;;;;;;38.93;32.52;98432.63;1738620;82;20280;-77
2021/08/14 09:40:39;;;;;;;;;;;;;;;38.84;32.24;98428.31;1739018;81;20124;-81
2021/08/14 09:43:05;;;;;;;;;;;;;;;39.05;31.52;98434.58;1739197;82;20164;-81
2021/08/14 09:45:31;;;;;;;;;;;;;;;39.70;30.25;98425.23;1739077;82;21055;-81
2021/08/14 09:47:57;;;;;;;;;;;;;;;39.49;30.06;98423.23;1738732;81;20225;-81
2021/08/14 09:50:33;;;;;;;;;;;;;;;39.32;30.75;98434.02;1739001;81;20241;-81
2021/08/14 09:53:12;;;;;;;;;;;;;;;39.45;29.95;98425.41;1738716;81;20137;-80
2021/08/14 09:55:38;;;;;;;;;;;;;;;39.59;29.87;98426.93;1739118;81;20140;-82
2021/08/14 09:58:04;;;;;;;;;;;;;;;40.02;28.94;98429.63;1738678;82;21130;-81
2021/08/14 10:00:31;;;;;;;;;;;;;;;40.42;28.79;98425.89;1738926;82;20329;-77
2021/08/14 10:02:58;;;;;;;;;;;;;;;40.59;27.05;98417.28;1738742;81;20152;-81
2021/08/14 10:05:24;;;;;;;;;;;;;;;40.81;28.24;98421.36;1743041;81;20423;-81
2021/08/14 10:07:50;;;;;;;;;;;;;;;40.02;28.97;98423.95;1742297;82;20218;-81
2021/08/14 10:10:15;;;;;;;;;;;;;;;39.74;28.78;98417.39;1739270;82;21125;-78
2021/08/14 10:12:41;;;;;;;;;;;;;;;39.81;27.46;98419.75;1738936;81;20170;-78
2021/08/14 10:15:07;;;;;;;;;;;;;;;39.09;28.74;98418.26;1739230;81;20186;-81
2021/08/14 10:17:36;;;;;;;;;;;;;;;39.38;28.09;98415.77;1739194;82;20166;-78
2021/08/14 10:20:02;;;;;;;;;;;;;;;38.32;29.08;98409.30;1738919;82;20135;-81
2021/08/14 10:22:28;;;;;;;;;;;;;;;37.90;29.64;98416.37;1739021;82;20778;-77
2021/08/14 10:24:55;;;;;;;;;;;;;;;39.00;29.24;98412.53;1739157;82;20217;-77
2021/08/14 10:27:22;;;;;;;;;;;;;;;39.95;28.10;98410.03;1739105;81;20191;-81
2021/08/14 10:29:53;;;;;;;;;;;;;;;39.92;26.43;98403.89;1739374;81;20148;-81
2021/08/14 10:32:40;;;;;;;;;;;;;;;39.72;28.04;98398.61;1739022;82;20143;-78
2021/08/14 10:35:20;;;;;;;;;;;;;;;37.10;30.92;98403.69;1739151;82;21901;-78
2021/08/14 10:37:44;;;;;;;;;;;;;;;35.86;33.53;98402.30;1737208;82;20132;-77
2021/08/14 10:40:10;;;;;;;;;;;;;;;34.76;34.88;98399.87;1739221;82;20521;-81
2021/08/14 10:42:59;;;;;;;;;;;;;;;34.29;36.41;98393.53;1738936;82;20190;-78
2021/08/14 10:45:36;;;;;;;;;;;;;;;33.68;38.41;98400.77;1737978;82;20301;-78
2021/08/14 10:48:05;;;;;;;;;;;;;;;32.87;38.47;98386.61;1738930;81;21609;-81
2021/08/14 10:50:34;;;;;;;;;;;;;;;32.48;40.02;98392.66;1738731;82;20171;-81
2021/08/14 10:53:21;;;;;;;;;;;;;;;32.33;40.27;98389.20;1738859;81;20132;-81
2021/08/14 10:55:47;;;;;;;;;;;;;;;32.16;41.35;98390.14;1737894;82;20623;-78
2021/08/14 10:58:25;;;;;;;;;;;;;;;31.79;41.13;98385.25;1738838;82;20140;-77
2021/08/14 11:00:52;;;;;;;;;;;;;;;31.94;42.19;98378.33;1739257;81;21092;-77
2021/08/14 11:03:20;;;;;;;;;;;;;;;31.84;42.01;98369.41;1738768;81;20079;-77
2021/08/14 11:05:46;;;;;;;;;;;;;;;31.78;42.85;98371.05;1740070;81;20415;-81
2021/08/14 11:08:25;;;;;;;;;;;;;;;31.48;42.73;98364.06;1738935;82;20148;-81
2021/08/14 11:10:51;;;;;;;;;;;;;;;31.38;42.90;98356.55;1737866;82;20461;-77
2021/08/14 11:13:35;;;;;;;;;;;;;;;31.46;43.48;98358.09;1738919;81;21150;-77
2021/08/14 11:16:01;;;;;;;;;;;;;;;31.16;44.28;98362.23;1739001;82;20155;-77
2021/08/14 11:18:47;;;;;;;;;;;;;;;30.84;44.34;98364.39;1738896;81;20183;-80
2021/08/14 11:21:13;;;;;;;;;;;;;;;30.60;45.30;98360.48;1738524;81;20132;-80
2021/08/14 11:23:39;;;;;;;;;;;;;;;30.51;44.88;98371.30;1739070;81;20142;-77
2021/08/14 11:26:04;;;;;;;;;;;;;;;30.61;45.89;98367.66;1736024;82;21095;-81
2021/08/14 11:28:30;;;;;;;;;;;;;;;30.50;46.10;98368.28;1738739;81;20480;-80
2021/08/14 11:31:01;;;;;;;;;;;;;;;30.17;47.26;98373.17;1739058;82;20163;-81
2021/08/14 11:33:27;;;;;;;;;;;;;;;29.87;49.17;98363.78;1738776;81;20383;-81
2021/08/14 11:36:07;;;;;;;;;;;;;;;29.84;50.29;98365.98;1739178;82;20155;-80
2021/08/14 11:38:34;;;;;;;;;;;;;;;29.76;50.08;98353.22;1738767;82;21033;-77
2021/08/14 11:41:01;;;;;;;;;;;;;;;29.81;50.46;98351.41;1739059;82;20128;-76
2021/08/14 11:43:31;;;;;;;;;;;;;;;29.95;49.55;98346.42;1738896;81;20131;-81
2021/08/14 11:46:00;;;;;;;;;;;;;;;29.96;47.84;98343.22;1739168;81;20199;-77
2021/08/14 11:48:26;;;;;;;;;;;;;;;30.09;47.46;98347.05;1738527;82;20135;-80
2021/08/14 11:50:54;;;;;;;;;;;;;;;30.02;47.99;98345.02;1739011;81;21927;-77
2021/08/14 11:53:26;;;;;;;;;;;;;;;29.67;48.75;98353.63;1738788;81;20139;-80
2021/08/14 11:56:06;;;;;;;;;;;;;;;29.65;49.07;98354.59;1739141;81;20141;-76
2021/08/14 11:58:32;;;;;;;;;;;;;;;29.51;50.20;98349.03;1738814;82;20140;-77
2021/08/14 12:00:58;;;;;;;;;;;;;;;29.32;50.26;98350.17;1739169;81;20166;-77
2021/08/14 12:03:24;;;;;;;;;;;;;;;29.14;51.05;98347.92;1738912;82;21033;-77
2021/08/14 12:05:50;;;;;;;;;;;;;;;29.02;51.12;98342.13;1732790;82;20144;-76
2021/08/14 12:08:29;;;;;;;;;;;;;;;29.19;51.44;98346.95;1730801;83;20164;-80
2021/08/14 12:10:55;;;;;;;;;;;;;;;29.43;51.20;98346.80;1730837;82;20635;-77
2021/08/14 12:13:20;;;;;;;;;;;;;;;29.44;52.44;98344.20;1709736;83;20230;-81
2021/08/14 12:15:48;;;;;;;;;;;;;;;29.56;52.25;98343.03;1731026;82;21924;-80
2021/08/14 12:18:14;;;;;;;;;;;;;;;29.62;51.09;98338.66;1730772;83;20142;-80
2021/08/14 12:20:42;;;;;;;;;;;;;;;29.56;52.12;98341.63;1731014;82;20160;-80
2021/08/14 12:23:28;;;;;;;;;;;;;;;29.57;50.98;98335.45;1730704;82;20416;-80
2021/08/14 12:25:59;;;;;;;;;;;;;;;29.51;50.69;98332.87;1730613;83;20132;-77
2021/08/14 12:28:29;;;;;;;;;;;;;;;29.43;50.52;98333.44;1730724;82;21757;-80
2021/08/14 12:30:58;;;;;;;;;;;;;;;29.41;49.84;98331.05;1730812;83;20092;-77
2021/08/14 12:33:29;;;;;;;;;;;;;;;29.12;49.83;98329.39;1730806;82;20140;-80
2021/08/14 12:36:00;;;;;;;;;;;;;;;29.21;50.31;98327.02;1730925;83;20160;-77
2021/08/14 12:38:27;;;;;;;;;;;;;;;29.81;48.32;98325.48;1730805;83;20145;-77
2021/08/14 12:40:52;;;;;;;;;;;;;;;31.47;42.92;98323.88;1730997;83;21877;-77
2021/08/14 12:43:19;;;;;;;;;;;;;;;33.00;41.38;98331.53;1730632;83;20170;-81
2021/08/14 12:45:45;;;;;;;;;;;;;;;34.08;38.48;98332.84;1730935;82;20123;-77
2021/08/14 12:48:11;;;;;;;;;;;;;;;34.99;35.93;98335.70;1730823;83;20237;-81